SAVV/VDM METAR and TAF weather

Enter ICAO airport designator
Station Type Date Time Source
SAVV METAR 2019/10/13 16:22 UTC NOAA

SAVV 131622Z 20016KT 9999 FEW030TCU SCT035 14/01 Q1025 RESHRA


Station Type Date Time Source
SAVV Decoded METAR 2019/10/13 16:22 UTC NOAA

Viedma Aerodrome, Argentina (SAVV) 40-51S 063-01W 7M
Oct 13, 2019 - 12:22 PM EDT / 2019.10.13 1622 UTC
Wind: from the SSW (200 degrees) at 18 MPH (16 KT):0
Visibility: greater than 7 mile(s):0
Sky conditions: partly cloudy
Weather: Towering cumulus clouds observed
Temperature: 57 F (14 C)
Dew Point: 33 F (1 C)
Relative Humidity: 41%
Pressure (altimeter): 30.27 in. Hg (1025 hPa)
ob: SAVV 131622Z 20016KT 9999 FEW030TCU SCT035 14/01 Q1025 RESHRA
cycle: 16

Station Type Date Time Source
SAVV TAF 2019/04/29 06:24 UTC NOAA

TAF TAF SAVV 290500Z 2906/3006 29015KT CAVOK TX18/2919Z TN07/3006Z
BECMG 2908/3010 25010KT
TEMPO 2914/2921 25020G30KT

Example: see airport list